»·PEaware :: SWA1025 KPHX-KLAX

SWA1025 :: KPHX-KLAX

FLIGHT INFORMATION

Flight Status: Arrived
Operator:
Southwest Airlines
More flights by this operator :: More flights under this callsign
Pilot: Drew Leevy (13237)
Aircraft: BOEING 737-300
(B733)
More flights by this aircraft type
Origin: KPHX Phoenix Sky Harbor Intl
United States
Destination: KLAX Los Angeles Intl
United States
More flights between these airports :: More routes between these airports
Route: IZZZO6 MESSI ESTWD HLYWD1
File this flight plan on PilotEdge
Remarks: Sample flight plan
Altitude:
(Current/Filed)
30,000ft
Speed:
(Current/Filed)
550kts
Departed: 16-Jun-17 06:32 PM
Arrived: 16-Jun-17 07:29 PM
Distance/Time
Traveled:
320nm/0:56
Distance/Time
To Go:
Arrived

Flight Plot

Page will automatically refresh every two minutes.

Flight plan parsing failed; only flown route is shown


Map Options




Map Legend


Flown Route
Filed Route
Departure Airport
Arrival Airport
Navaid (VOR, NDB)
Fix

Horizontal Profiles

Position Reports

Time Latitude Longitude Heading Altitude Ground
Speed
16-Jun-17 17:32 33.433467 -111.993964 345 1123ft 0kts
16-Jun-17 17:33 33.433467 -111.993964 345 1123ft 0kts
16-Jun-17 17:35 33.433467 -111.993964 345 1123ft 0kts
16-Jun-17 17:36 33.433467 -111.993964 345 1123ft 0kts
16-Jun-17 17:37 33.433467 -111.993964 345 1123ft 0kts
16-Jun-17 17:38 33.433467 -111.993964 345 1123ft 0kts
16-Jun-17 17:39 33.433467 -111.993964 345 1123ft 0kts
16-Jun-17 17:40 33.433467 -111.993964 345 1123ft 0kts
16-Jun-17 17:41 33.433467 -111.993964 345 1123ft 0kts
16-Jun-17 17:42 33.433467 -111.993964 345 1123ft 0kts
16-Jun-17 17:43 33.433467 -111.993964 345 1123ft 0kts
16-Jun-17 17:44 33.433467 -111.993964 345 1123ft 0kts
16-Jun-17 17:45 33.433467 -111.993964 345 1123ft 0kts
16-Jun-17 17:46 33.433467 -111.993964 345 1123ft 0kts
16-Jun-17 17:47 33.433467 -111.993964 345 1123ft 0kts
16-Jun-17 17:48 33.433467 -111.993964 345 1123ft 0kts
16-Jun-17 17:49 33.433467 -111.993964 345 1123ft 0kts
16-Jun-17 17:50 33.433467 -111.993964 345 1123ft 0kts
16-Jun-17 17:51 33.433467 -111.993964 345 1123ft 0kts
16-Jun-17 17:52 33.433467 -111.993964 345 1123ft 0kts
16-Jun-17 17:53 33.433467 -111.993964 345 1123ft 0kts
16-Jun-17 17:54 33.433467 -111.993964 345 1123ft 0kts
16-Jun-17 17:55 33.433467 -111.993964 345 1123ft 0kts
16-Jun-17 17:56 33.433467 -111.993964 345 1123ft 0kts
16-Jun-17 17:57 33.433467 -111.993964 345 1123ft 0kts
16-Jun-17 17:58 33.433467 -111.993964 345 1123ft 0kts
16-Jun-17 17:59 33.433467 -111.993964 345 1123ft 0kts
16-Jun-17 18:00 33.433467 -111.993964 345 1123ft 0kts
16-Jun-17 18:01 33.433467 -111.993964 345 1123ft 0kts
16-Jun-17 18:02 33.433467 -111.993964 345 1123ft 0kts
16-Jun-17 18:03 33.433467 -111.993964 345 1123ft 0kts
16-Jun-17 18:04 33.433467 -111.993964 345 1123ft 0kts
16-Jun-17 18:05 33.433467 -111.993964 345 1123ft 0kts
16-Jun-17 18:06 33.433467 -111.993964 345 1123ft 0kts
16-Jun-17 18:07 33.433467 -111.993964 345 1123ft 0kts
16-Jun-17 18:08 33.433467 -111.993964 345 1123ft 0kts
16-Jun-17 18:09 33.433467 -111.993964 345 1123ft 0kts
16-Jun-17 18:10 33.433467 -111.993964 345 1123ft 0kts
16-Jun-17 18:11 33.433467 -111.993964 345 1123ft 0kts
16-Jun-17 18:12 33.433467 -111.993964 345 1123ft 0kts
16-Jun-17 18:13 33.433467 -111.993964 345 1123ft 0kts
16-Jun-17 18:14 33.433467 -111.993964 345 1123ft 0kts
16-Jun-17 18:15 33.433467 -111.993964 345 1123ft 0kts
16-Jun-17 18:16 33.433467 -111.993964 345 1123ft 0kts
16-Jun-17 18:17 33.433467 -111.993964 345 1123ft 0kts
16-Jun-17 18:18 33.433467 -111.993964 345 1123ft 0kts
16-Jun-17 18:19 33.433467 -111.993964 345 1123ft 0kts
16-Jun-17 18:20 33.433467 -111.993964 345 1123ft 0kts
16-Jun-17 18:21 33.433467 -111.993964 345 1123ft 0kts
16-Jun-17 18:22 33.433467 -111.993964 345 1123ft 0kts
16-Jun-17 18:23 33.433467 -111.993964 345 1123ft 0kts
16-Jun-17 18:24 33.433467 -111.993964 345 1123ft 0kts
16-Jun-17 18:25 33.433199 -111.993882 345 1122ft 0kts
16-Jun-17 18:26 33.432975 -111.993815 345 1123ft 0kts
16-Jun-17 18:27 33.432975 -111.993815 345 1123ft 0kts
16-Jun-17 18:28 33.432975 -111.993815 345 1123ft 0kts
16-Jun-17 18:29 33.433041 -111.993663 125 1123ft 0kts
16-Jun-17 18:30 33.433038 -111.993658 126 1123ft 0kts
16-Jun-17 18:31 33.432809 -111.993483 178 1123ft 5kts
16-Jun-17 18:32 33.432001 -111.993475 179 1122ft 0kts
16-Jun-17 18:33 33.432001 -111.993475 179 1122ft 0kts
16-Jun-17 18:34 33.431052 -111.994669 270 1123ft 26kts
16-Jun-17 18:35 33.430730 -112.045507 270 2685ft 203kts
16-Jun-17 18:36 33.432886 -112.127151 272 4867ft 268kts
16-Jun-17 18:37 33.436271 -112.218149 274 8231ft 288kts
16-Jun-17 18:38 33.440116 -112.318293 274 10582ft 337kts
16-Jun-17 18:39 33.444425 -112.433191 273 13601ft 355kts
16-Jun-17 18:40 33.448839 -112.553410 273 16530ft 369kts
16-Jun-17 18:41 33.451317 -112.676213 271 19169ft 384kts
16-Jun-17 18:42 33.455236 -112.805450 285 21791ft 395kts
16-Jun-17 18:42 33.490454 -112.907632 292 23760ft 405kts
16-Jun-17 18:43 33.534696 -113.033527 292 25930ft 417kts
16-Jun-17 18:44 33.580147 -113.163713 292 27939ft 429kts
16-Jun-17 18:45 33.621988 -113.284043 293 29707ft 429kts
16-Jun-17 18:46 33.662166 -113.400203 293 29798ft 442kts
16-Jun-17 18:47 33.706460 -113.528797 293 29801ft 457kts
16-Jun-17 18:48 33.754057 -113.667548 292 29776ft 458kts
16-Jun-17 18:49 33.802183 -113.808633 292 29807ft 458kts
16-Jun-17 18:50 33.850285 -113.950076 292 29779ft 458kts
16-Jun-17 18:51 33.898239 -114.091706 292 29779ft 458kts
16-Jun-17 18:52 33.926941 -114.240946 282 29781ft 459kts
16-Jun-17 18:53 33.952393 -114.391573 282 29778ft 459kts
16-Jun-17 18:54 33.977707 -114.541784 282 29779ft 459kts
16-Jun-17 18:55 34.001227 -114.682503 281 29755ft 460kts
16-Jun-17 18:56 34.026201 -114.833140 281 29779ft 459kts
16-Jun-17 18:57 34.051058 -114.984166 281 29777ft 459kts
16-Jun-17 18:58 34.075120 -115.135274 281 29779ft 459kts
16-Jun-17 18:59 34.099521 -115.285674 281 29779ft 460kts
16-Jun-17 19:00 34.121734 -115.422011 281 29782ft 460kts
16-Jun-17 19:01 34.142250 -115.550766 281 29940ft 416kts
16-Jun-17 19:02 34.162205 -115.677557 280 29920ft 423kts
16-Jun-17 19:03 34.151754 -115.818458 264 29942ft 424kts
16-Jun-17 19:04 34.137964 -115.959485 264 29941ft 424kts
16-Jun-17 19:05 34.124059 -116.100579 264 29940ft 423kts
16-Jun-17 19:06 34.110202 -116.241382 264 29942ft 424kts
16-Jun-17 19:07 34.095660 -116.380872 264 29352ft 408kts
16-Jun-17 19:08 34.081756 -116.510899 264 27984ft 400kts
16-Jun-17 19:09 34.068111 -116.644543 264 26468ft 405kts
16-Jun-17 19:10 34.056721 -116.767660 264 24903ft 403kts
16-Jun-17 19:11 34.044106 -116.898876 262 23063ft 376kts
16-Jun-17 19:12 34.028207 -117.020718 261 20663ft 364kts
16-Jun-17 19:13 34.013995 -117.139544 262 18327ft 353kts
16-Jun-17 19:14 34.000568 -117.252264 262 16415ft 334kts
16-Jun-17 19:15 33.987543 -117.361668 263 14141ft 330kts
16-Jun-17 19:16 33.975621 -117.463176 263 13058ft 294kts
16-Jun-17 19:17 33.988847 -117.557367 287 11880ft 287kts
16-Jun-17 19:18 34.010480 -117.648497 287 10653ft 287kts
16-Jun-17 19:19 34.022330 -117.739914 270 9556ft 279kts
16-Jun-17 19:20 34.011841 -117.831353 261 8476ft 272kts
16-Jun-17 19:21 34.000682 -117.916586 265 7656ft 240kts
16-Jun-17 19:22 33.993701 -117.991492 267 6874ft 218kts
16-Jun-17 19:23 33.987053 -118.059687 267 5979ft 197kts
16-Jun-17 19:24 33.980637 -118.122679 267 4759ft 177kts
16-Jun-17 19:25 33.975192 -118.176077 268 3913ft 155kts
16-Jun-17 19:26 33.970330 -118.224451 268 3103ft 144kts
16-Jun-17 19:27 33.966174 -118.271450 262 2296ft 140kts
16-Jun-17 19:28 33.961012 -118.316877 260 1551ft 137kts
16-Jun-17 19:29 33.956294 -118.361522 261 832ft 137kts
16-Jun-17 19:30 33.951747 -118.405494 261 119ft 124kts
16-Jun-17 19:31 33.949405 -118.419217 232 119ft 0kts
16-Jun-17 19:32 33.949404 -118.419217 233 119ft 0kts
16-Jun-17 19:33 33.949404 -118.419217 233 119ft 0kts
16-Jun-17 19:34 33.947425 -118.422354 220 115ft 14kts
16-Jun-17 19:35 33.947491 -118.415874 83 118ft 26kts
16-Jun-17 19:36 33.948548 -118.406799 83 119ft 32kts
16-Jun-17 19:37 33.948378 -118.400495 124 113ft 11kts
16-Jun-17 19:38 33.947903 -118.400722 223 114ft 0kts
16-Jun-17 19:39 33.947903 -118.400722 223 114ft 0kts
16-Jun-17 19:40 33.947903 -118.400722 223 114ft 0kts
16-Jun-17 19:41 33.947903 -118.400722 223 114ft 0kts
16-Jun-17 19:42 33.947903 -118.400722 223 114ft 0kts
16-Jun-17 19:43 33.947903 -118.400722 223 114ft 0kts
16-Jun-17 19:44 33.947903 -118.400722 223 114ft 0kts
16-Jun-17 19:45 33.947903 -118.400722 223 114ft 0kts

Navigation Log

Ident Type
Flight plan parsing failed, navigation log unavailable